Time;durP1;ratioP1;P1;durP2;ratioP2;P2;SDS_P1;SDS_P2;PMS_P1;PMS_P2;Temp;Humidity;BMP_temperature;BMP_pressure;BME280_temperature;BME280_humidity;BME280_pressure;Samples;Min_cycle;Max_cycle;Signal;HPM_P1;HPM_P2
2024/01/17 00:01:14;;;;;;;6.15;3.58;;;;;;;-18.18;81.03;99201.00;10337094;28;20046;-67
2024/01/17 00:06:16;;;;;;;6.70;3.78;;;;;;;-18.22;80.65;99205.69;10353055;28;20046;-68
2024/01/17 00:11:20;;;;;;;8.68;3.45;;;;;;;-18.22;80.56;99207.44;10347812;28;20038;-67
2024/01/17 00:16:22;;;;;;;6.80;3.50;;;;;;;-18.26;80.42;99227.00;10339592;28;20405;-67
2024/01/17 00:21:25;;;;;;;7.75;3.70;;;;;;;-18.29;80.38;99230.72;10349922;28;20050;-67
2024/01/17 00:26:27;;;;;;;6.03;3.17;;;;;;;-18.29;80.09;99238.56;10346753;28;20065;-66
2024/01/17 00:31:32;;;;;;;6.60;3.00;;;;;;;-18.34;80.48;99249.44;10312375;28;20043;-67
2024/01/17 00:36:34;;;;;;;6.57;2.75;;;;;;;-18.38;80.38;99255.91;10269243;29;20046;-66
2024/01/17 00:41:37;;;;;;;5.75;2.90;;;;;;;-18.47;80.08;99256.69;10301691;28;20043;-68
2024/01/17 00:46:40;;;;;;;4.95;2.97;;;;;;;-18.50;80.01;99264.81;10317228;28;20074;-67
2024/01/17 00:51:42;;;;;;;7.13;2.85;;;;;;;-18.50;80.66;99282.28;10310298;28;20043;-66
2024/01/17 00:56:45;;;;;;;4.57;2.78;;;;;;;-18.47;79.80;99287.25;10306020;28;20422;-67
2024/01/17 01:01:48;;;;;;;6.00;2.75;;;;;;;-18.49;80.49;99290.00;10302530;28;20419;-66
2024/01/17 01:06:50;;;;;;;5.32;2.70;;;;;;;-18.54;80.09;99309.69;10307461;28;20038;-67
2024/01/17 01:11:52;;;;;;;5.80;2.75;;;;;;;-18.56;80.79;99314.22;10283826;28;20035;-68
2024/01/17 01:16:55;;;;;;;4.97;2.45;;;;;;;-18.52;80.63;99320.84;10319724;28;20529;-66
2024/01/17 01:21:57;;;;;;;4.80;2.45;;;;;;;-18.55;80.61;99335.00;10312734;28;20074;-66
2024/01/17 01:26:59;;;;;;;5.10;2.58;;;;;;;-18.54;81.04;99333.22;10296614;28;20039;-67
2024/01/17 01:32:02;;;;;;;6.10;2.38;;;;;;;-18.53;80.83;99355.81;10294615;28;20047;-67
2024/01/17 01:37:06;;;;;;;4.32;2.50;;;;;;;-18.62;80.77;99352.97;10309033;28;20054;-68
2024/01/17 01:42:08;;;;;;;4.65;2.10;;;;;;;-18.64;80.44;99348.88;10293115;28;20506;-67
2024/01/17 01:47:13;;;;;;;4.45;2.13;;;;;;;-18.79;80.79;99350.97;10274183;28;20045;-67
2024/01/17 01:52:20;;;;;;;5.53;2.17;;;;;;;-18.76;80.58;99357.72;10313396;28;20802;-67
2024/01/17 01:57:24;;;;;;;4.78;2.42;;;;;;;-18.86;81.10;99368.13;10319795;28;20049;-67
2024/01/17 02:02:29;;;;;;;4.20;2.00;;;;;;;-18.85;80.53;99367.19;10298361;28;20043;-68
2024/01/17 02:07:33;;;;;;;3.92;2.22;;;;;;;-18.89;80.47;99380.63;10295455;28;20073;-67
2024/01/17 02:12:37;;;;;;;4.93;2.60;;;;;;;-18.91;81.01;99386.00;10296936;28;20034;-67
2024/01/17 02:17:40;;;;;;;4.53;2.55;;;;;;;-19.01;80.94;99395.53;10283763;28;20043;-68
2024/01/17 02:23:23;;;;;;;5.00;2.13;;;;;;;-19.05;80.12;99401.97;10309479;28;20042;-67
2024/01/17 02:28:29;;;;;;;4.60;2.30;;;;;;;-19.13;80.42;99409.56;10307775;28;20038;-67
2024/01/17 02:33:32;;;;;;;4.72;2.28;;;;;;;-19.19;80.99;99417.91;10301360;28;20043;-69
2024/01/17 02:38:34;;;;;;;3.25;1.85;;;;;;;-19.20;80.76;99422.31;10279727;28;20051;-68
2024/01/17 02:43:37;;;;;;;4.47;2.47;;;;;;;-19.27;81.14;99435.03;10311346;28;20039;-67
2024/01/17 02:48:40;;;;;;;5.85;2.35;;;;;;;-19.28;81.18;99443.81;10288317;28;20039;-67
2024/01/17 02:53:43;;;;;;;2.70;1.88;;;;;;;-19.11;81.60;99444.25;10306555;28;20046;-67
2024/01/17 02:58:47;;;;;;;4.13;1.95;;;;;;;-19.24;80.97;99445.25;10291090;28;20049;-67
2024/01/17 03:03:50;;;;;;;5.70;2.10;;;;;;;-19.29;81.03;99450.00;10277276;28;20034;-67
2024/01/17 03:08:54;;;;;;;3.42;1.95;;;;;;;-19.25;81.02;99464.50;10304372;28;20528;-67
2024/01/17 03:13:56;;;;;;;4.22;2.22;;;;;;;-19.29;81.11;99468.28;10309883;28;20035;-68
2024/01/17 03:18:59;;;;;;;2.60;1.83;;;;;;;-19.20;81.04;99471.97;10292782;28;20046;-67
2024/01/17 03:24:01;;;;;;;3.78;1.92;;;;;;;-19.19;81.10;99475.41;10307579;28;20506;-67
2024/01/17 03:29:06;;;;;;;3.17;2.20;;;;;;;-19.18;81.07;99490.13;10286347;28;20038;-67
2024/01/17 03:34:08;;;;;;;4.30;2.25;;;;;;;-19.08;80.91;99501.53;10310316;28;20046;-66
2024/01/17 03:39:11;;;;;;;3.65;1.92;;;;;;;-19.08;81.26;99518.06;10290295;28;20050;-67
2024/01/17 03:44:14;;;;;;;2.92;1.75;;;;;;;-19.09;80.95;99512.91;10296036;28;20055;-67
2024/01/17 03:49:17;;;;;;;2.88;1.15;;;;;;;-19.03;81.48;99530.75;10286759;28;20541;-67
2024/01/17 03:54:19;;;;;;;0.75;0.73;;;;;;;-18.97;81.47;99536.31;10299458;28;20490;-67
2024/01/17 03:59:21;;;;;;;1.08;0.70;;;;;;;-18.94;81.34;99532.63;10296820;28;20035;-66
2024/01/17 04:04:24;;;;;;;1.92;1.08;;;;;;;-18.79;81.69;99544.50;10296741;28;20058;-66
2024/01/17 04:09:27;;;;;;;2.58;1.20;;;;;;;-18.62;81.34;99549.19;10301332;28;20062;-67
2024/01/17 04:14:30;;;;;;;2.35;2.15;;;;;;;-18.79;81.25;99554.94;10298776;28;20042;-68
2024/01/17 04:19:32;;;;;;;1.67;1.20;;;;;;;-18.81;81.64;99567.31;10292500;28;20039;-68
2024/01/17 04:24:34;;;;;;;1.90;1.30;;;;;;;-18.87;81.13;99573.03;10315314;28;20050;-68
2024/01/17 04:29:37;;;;;;;5.22;1.45;;;;;;;-18.87;81.77;99591.34;10300869;28;20046;-67
2024/01/17 04:34:39;;;;;;;2.88;1.48;;;;;;;-18.87;82.10;99598.38;10307197;28;20043;-67
2024/01/17 04:39:42;;;;;;;2.63;1.45;;;;;;;-18.78;81.81;99593.22;10293252;28;20062;-67
2024/01/17 04:44:45;;;;;;;1.95;1.42;;;;;;;-18.78;82.02;99585.38;10276152;29;20045;-67
2024/01/17 04:49:47;;;;;;;4.72;2.17;;;;;;;-18.70;82.45;99588.22;10313719;28;20038;-68
2024/01/17 04:54:50;;;;;;;5.32;2.47;;;;;;;-18.69;82.24;99582.06;10288790;28;20057;-68
2024/01/17 04:59:53;;;;;;;3.13;1.55;;;;;;;-18.64;82.56;99573.84;10315064;28;20414;-67
2024/01/17 05:04:56;;;;;;;4.70;2.08;;;;;;;-18.60;82.56;99583.88;10297831;28;20422;-67
2024/01/17 05:09:58;;;;;;;1.95;1.17;;;;;;;-18.56;82.51;99596.75;10293740;28;20043;-67
2024/01/17 05:15:01;;;;;;;1.48;1.35;;;;;;;-18.56;82.58;99600.19;10313770;28;20422;-68
2024/01/17 05:20:04;;;;;;;0.73;0.70;;;;;;;-18.57;82.60;99598.50;10303460;28;20122;-68
2024/01/17 05:25:08;;;;;;;3.00;1.48;;;;;;;-18.52;83.06;99600.78;10306409;28;20046;-68
2024/01/17 05:30:11;;;;;;;5.90;2.63;;;;;;;-18.58;82.81;99603.84;10309852;28;20042;-68
2024/01/17 05:35:14;;;;;;;2.85;1.77;;;;;;;-18.57;83.06;99615.97;10298505;28;20050;-68
2024/01/17 05:40:17;;;;;;;5.70;2.00;;;;;;;-18.62;82.89;99632.88;10314994;28;20058;-68
2024/01/17 05:45:20;;;;;;;1.98;1.65;;;;;;;-18.67;83.05;99632.44;10325127;28;20422;-68
2024/01/17 05:50:23;;;;;;;1.60;1.48;;;;;;;-18.63;82.76;99646.13;10307820;28;20046;-67
2024/01/17 05:55:26;;;;;;;2.78;1.70;;;;;;;-18.53;83.37;99648.81;10302153;28;20054;-67
2024/01/17 06:00:29;;;;;;;2.08;1.48;;;;;;;-18.38;83.14;99668.56;10288664;28;20042;-68
2024/01/17 06:05:31;;;;;;;4.85;0.98;;;;;;;-18.28;83.33;99663.41;10268456;28;20043;-67
2024/01/17 06:10:34;;;;;;;3.35;2.28;;;;;;;-18.25;82.62;99665.78;10298860;28;20043;-67
2024/01/17 06:15:37;;;;;;;1.40;1.13;;;;;;;-18.22;82.76;99674.25;10294321;28;20039;-67
2024/01/17 06:20:39;;;;;;;2.42;1.00;;;;;;;-18.14;82.38;99666.59;10311824;28;20050;-67
2024/01/17 06:25:41;;;;;;;2.28;1.58;;;;;;;-18.11;82.18;99655.03;10300877;28;20061;-67
2024/01/17 06:30:44;;;;;;;1.05;1.05;;;;;;;-18.16;81.84;99662.44;10320288;28;20047;-67
2024/01/17 06:35:49;;;;;;;2.72;1.17;;;;;;;-18.14;81.56;99671.00;10317118;28;20677;-67
2024/01/17 06:40:52;;;;;;;1.85;0.70;;;;;;;-18.13;81.33;99709.31;10314339;28;20054;-67
2024/01/17 06:45:55;;;;;;;10.13;2.03;;;;;;;-18.02;81.36;99710.13;10319249;28;20054;-67
2024/01/17 06:50:57;;;;;;;2.15;1.27;;;;;;;-18.02;80.64;99717.97;10321788;28;20054;-67
2024/01/17 06:55:59;;;;;;;2.90;2.25;;;;;;;-17.96;81.00;99698.31;10316338;28;20039;-67
2024/01/17 07:01:02;;;;;;;3.10;1.55;;;;;;;-17.88;80.95;99698.53;10305684;28;20407;-67
2024/01/17 07:06:05;;;;;;;4.35;1.80;;;;;;;-17.62;81.00;99688.53;10302177;28;20049;-67
2024/01/17 07:11:10;;;;;;;5.72;1.33;;;;;;;-17.57;80.70;99688.13;10304257;28;20062;-67
2024/01/17 07:16:15;;;;;;;4.28;2.10;;;;;;;-17.56;80.41;99690.63;10295454;28;20062;-67
2024/01/17 07:21:17;;;;;;;2.83;1.60;;;;;;;-17.58;80.58;99695.16;10312312;28;20049;-67
2024/01/17 07:26:19;;;;;;;2.58;1.60;;;;;;;-17.32;80.15;99694.84;10305846;28;20035;-67
2024/01/17 07:31:22;;;;;;;3.05;1.83;;;;;;;-15.99;79.19;99702.59;10316370;28;20121;-67
2024/01/17 07:36:24;;;;;;;2.97;1.75;;;;;;;-13.55;75.24;99729.81;10292883;28;20054;-67
2024/01/17 07:41:29;;;;;;;5.22;2.15;;;;;;;-13.19;68.73;99715.66;10317563;28;20035;-67
2024/01/17 07:46:31;;;;;;;5.50;2.47;;;;;;;-12.43;66.89;99730.03;10289864;28;20438;-67
2024/01/17 07:51:34;;;;;;;3.75;2.08;;;;;;;-13.34;65.58;99740.09;10301392;28;20042;-67
2024/01/17 07:56:37;;;;;;;2.95;1.67;;;;;;;-12.18;63.79;99743.22;10307077;28;20050;-68
2024/01/17 08:01:41;;;;;;;4.05;2.80;;;;;;;-13.78;64.17;99758.41;10293232;28;20086;-67
2024/01/17 08:06:45;;;;;;;2.47;1.77;;;;;;;-15.12;67.33;99732.38;10317957;28;20046;-67
2024/01/17 08:11:51;;;;;;;3.88;2.05;;;;;;;-15.54;70.60;99758.94;10285704;28;20050;-66
2024/01/17 08:16:54;;;;;;;4.57;2.00;;;;;;;-15.65;72.02;99774.03;10288461;28;20044;-66
2024/01/17 08:21:57;;;;;;;3.90;2.35;;;;;;;-15.66;73.58;99756.59;10315022;28;20042;-67
2024/01/17 08:26:59;;;;;;;5.95;2.40;;;;;;;-15.62;74.35;99764.09;10294219;28;20035;-66
2024/01/17 08:32:04;;;;;;;2.45;2.10;;;;;;;-15.44;73.83;99768.63;10309135;28;20046;-66
2024/01/17 08:37:06;;;;;;;6.50;3.03;;;;;;;-15.19;73.74;99765.47;10314394;28;20050;-65
2024/01/17 08:42:10;;;;;;;7.07;3.10;;;;;;;-15.15;74.47;99760.75;10302722;28;20054;-66
2024/01/17 08:47:13;;;;;;;6.70;3.08;;;;;;;-15.12;73.88;99768.38;10290362;28;20427;-66
2024/01/17 08:52:15;;;;;;;8.35;2.80;;;;;;;-15.05;74.75;99772.13;10294101;28;20039;-65
2024/01/17 08:57:17;;;;;;;5.28;2.53;;;;;;;-14.96;74.12;99784.44;10324958;28;20038;-67
2024/01/17 09:02:21;;;;;;;7.82;3.97;;;;;;;-15.00;74.01;99776.00;10322492;28;20035;-67
2024/01/17 09:07:25;;;;;;;4.18;2.58;;;;;;;-14.76;74.05;99795.78;10317648;28;20046;-66
2024/01/17 09:12:28;;;;;;;3.40;2.58;;;;;;;-14.53;73.77;99781.34;10323879;28;20529;-66
2024/01/17 09:17:31;;;;;;;5.03;3.08;;;;;;;-14.44;73.88;99788.38;10323131;28;20038;-66
2024/01/17 09:22:34;;;;;;;4.72;2.80;;;;;;;-14.31;73.81;99799.41;10300165;28;20043;-67
2024/01/17 09:27:36;;;;;;;7.22;3.75;;;;;;;-14.10;74.02;99809.75;10328814;28;20043;-67
2024/01/17 09:32:39;;;;;;;8.32;4.18;;;;;;;-13.94;73.80;99803.88;10279541;28;20054;-66
2024/01/17 09:37:42;;;;;;;6.80;3.40;;;;;;;-13.67;73.23;99799.59;10325126;28;20046;-66
2024/01/17 09:42:44;;;;;;;7.55;2.67;;;;;;;-13.54;72.55;99802.69;10314678;28;20039;-68
2024/01/17 09:47:48;;;;;;;5.25;3.10;;;;;;;-13.68;72.19;99809.31;10319337;28;20042;-67
2024/01/17 09:52:52;;;;;;;5.05;3.25;;;;;;;-13.87;73.44;99828.69;10323817;28;20046;-68
2024/01/17 09:57:58;;;;;;;8.37;3.40;;;;;;;-13.91;73.89;99826.47;10277873;28;20392;-68
2024/01/17 10:03:03;;;;;;;6.85;3.00;;;;;;;-13.84;73.36;99835.47;10289964;28;20430;-68
2024/01/17 10:08:06;;;;;;;9.50;3.85;;;;;;;-13.90;74.34;99843.94;10288841;28;20035;-68
2024/01/17 10:13:10;;;;;;;1.95;1.80;;;;;;;-13.68;74.66;99842.78;10307965;28;20046;-67
2024/01/17 10:18:13;;;;;;;4.20;2.13;;;;;;;-13.68;75.20;99848.03;10303027;28;20035;-67
2024/01/17 10:23:16;;;;;;;2.03;1.85;;;;;;;-13.49;75.81;99845.31;10314108;28;20038;-67
2024/01/17 10:28:19;;;;;;;2.70;2.22;;;;;;;-13.36;76.69;99837.03;10313859;28;20034;-64
2024/01/17 10:33:22;;;;;;;5.38;2.20;;;;;;;-13.25;76.94;99845.59;10306184;28;20043;-67
2024/01/17 10:38:31;;;;;;;4.60;2.33;;;;;;;-13.15;77.90;99848.97;10297220;28;20141;-67
2024/01/17 10:43:53;;;;;;;3.58;1.58;;;;;;;-13.00;77.53;99856.38;10295035;28;20043;-67
2024/01/17 10:48:58;;;;;;;5.70;1.90;;;;;;;-12.95;78.49;99846.19;10275693;28;20058;-67
2024/01/17 10:54:01;;;;;;;4.68;1.92;;;;;;;-12.77;78.18;99854.13;10294480;28;20706;-67
2024/01/17 10:59:05;;;;;;;5.03;2.92;;;;;;;-12.62;78.73;99845.53;10278153;28;20047;-68
2024/01/17 11:04:16;;;;;;;2.58;1.92;;;;;;;-12.49;78.72;99850.41;10294459;28;20172;-67
2024/01/17 11:09:21;;;;;;;4.95;3.10;;;;;;;-12.46;79.38;99847.47;10306594;28;20047;-68
2024/01/17 11:14:25;;;;;;;5.40;2.55;;;;;;;-12.42;79.84;99855.91;10309930;28;20529;-67
2024/01/17 11:19:30;;;;;;;2.28;1.90;;;;;;;-12.26;79.33;99853.41;10277564;28;20510;-69
2024/01/17 11:25:01;;;;;;;1.95;1.33;;;;;;;-12.14;80.04;99862.75;10308151;28;20049;-68
2024/01/17 11:30:39;;;;;;;6.78;2.35;;;;;;;-12.11;80.70;99859.78;10301650;28;20035;-68
2024/01/17 11:35:46;;;;;;;1.73;1.63;;;;;;;-11.95;80.84;99859.91;10306749;28;20062;-69
2024/01/17 11:40:53;;;;;;;3.97;2.50;;;;;;;-11.89;80.87;99864.56;10297338;28;20058;-65
2024/01/17 11:45:56;;;;;;;1.88;1.65;;;;;;;-11.74;80.83;99866.59;10304726;28;20047;-67
2024/01/17 11:51:11;;;;;;;6.85;2.58;;;;;;;-11.72;82.23;99867.25;10288840;28;20038;-67
2024/01/17 11:56:15;;;;;;;2.35;2.03;;;;;;;-11.60;82.36;99869.47;10302911;28;20038;-70
2024/01/17 12:01:21;;;;;;;3.60;1.85;;;;;;;-11.54;82.11;99857.44;10300573;28;20034;-69
2024/01/17 12:06:24;;;;;;;4.95;3.08;;;;;;;-11.50;83.10;99866.69;10274996;28;20133;-67
2024/01/17 12:11:28;;;;;;;5.50;2.83;;;;;;;-11.61;82.94;99869.66;10306686;28;20050;-69
2024/01/17 12:16:30;;;;;;;6.50;2.45;;;;;;;-11.59;83.47;99888.84;10297052;28;20043;-68
2024/01/17 12:21:34;;;;;;;2.80;2.50;;;;;;;-11.58;83.54;99880.75;10306324;28;20050;-67
2024/01/17 12:26:36;;;;;;;3.72;2.38;;;;;;;-11.50;83.50;99887.03;10301102;28;20053;-66
2024/01/17 12:31:40;;;;;;;5.57;2.55;;;;;;;-11.52;83.65;99903.09;10315357;28;20089;-68
2024/01/17 12:36:42;;;;;;;3.33;2.90;;;;;;;-11.40;84.16;99885.94;10290623;28;20038;-69
2024/01/17 12:41:45;;;;;;;2.63;2.17;;;;;;;-11.44;84.47;99908.44;10301553;28;20676;-69
2024/01/17 12:46:48;;;;;;;8.55;3.33;;;;;;;-11.35;85.22;99910.13;10313968;28;20047;-68
2024/01/17 12:51:51;;;;;;;7.68;3.03;;;;;;;-11.26;85.32;99906.53;10306235;28;20049;-69
2024/01/17 12:56:55;;;;;;;4.20;3.13;;;;;;;-11.22;84.77;99911.50;10302421;28;20049;-68
2024/01/17 13:01:58;;;;;;;7.85;3.20;;;;;;;-11.17;85.53;99919.81;10300370;28;20064;-68
2024/01/17 13:07:01;;;;;;;3.33;2.67;;;;;;;-11.10;86.05;99926.13;10300655;28;20427;-69
2024/01/17 13:12:05;;;;;;;5.78;2.65;;;;;;;-11.02;85.81;99921.69;10315417;28;20038;-69
2024/01/17 13:17:15;;;;;;;4.35;2.88;;;;;;;-10.92;85.78;99932.16;10308434;28;20533;-69
2024/01/17 13:22:22;;;;;;;4.13;2.72;;;;;;;-10.87;86.77;99931.69;10310118;28;20421;-69
2024/01/17 13:27:25;;;;;;;3.15;2.88;;;;;;;-10.84;86.76;99926.88;10313263;28;20068;-69
2024/01/17 13:32:28;;;;;;;3.67;2.22;;;;;;;-10.77;87.08;99938.47;10291466;28;20510;-70
2024/01/17 13:37:31;;;;;;;6.53;2.13;;;;;;;-10.67;87.66;99939.19;10286188;28;20055;-69
2024/01/17 13:42:35;;;;;;;9.50;3.28;;;;;;;-10.70;87.37;99938.69;10286777;28;20395;-69
2024/01/17 13:47:40;;;;;;;3.58;2.85;;;;;;;-10.67;87.45;99941.84;10299911;28;20545;-69
2024/01/17 13:52:49;;;;;;;3.92;2.70;;;;;;;-10.69;87.67;99935.88;10288259;28;20510;-68
2024/01/17 13:57:53;;;;;;;2.53;1.70;;;;;;;-10.73;87.97;99945.13;10292379;28;20038;-69
2024/01/17 14:03:00;;;;;;;2.38;0.98;;;;;;;-10.71;88.05;99950.28;10296494;28;20039;-69
2024/01/17 14:08:03;;;;;;;7.78;2.33;;;;;;;-10.72;88.15;99957.41;10294476;28;20508;-69
2024/01/17 14:13:06;;;;;;;6.55;3.00;;;;;;;-10.80;87.60;99954.69;10296125;28;20047;-67
2024/01/17 14:18:13;;;;;;;3.15;2.00;;;;;;;-10.79;88.87;99958.19;10305249;28;20035;-68
2024/01/17 14:23:18;;;;;;;5.15;3.63;;;;;;;-10.69;88.54;99962.38;10274080;28;20434;-69
2024/01/17 14:28:24;;;;;;;6.85;2.50;;;;;;;-10.55;89.02;99962.75;10305432;28;20070;-69
2024/01/17 14:33:27;;;;;;;5.97;2.47;;;;;;;-10.42;88.74;99969.22;10311624;28;20047;-69
2024/01/17 14:38:30;;;;;;;3.00;1.90;;;;;;;-10.29;89.09;99979.34;10305491;28;20058;-68
2024/01/17 14:43:34;;;;;;;6.03;2.10;;;;;;;-10.31;88.58;99981.34;10293033;28;20049;-69
2024/01/17 14:48:37;;;;;;;2.90;2.28;;;;;;;-10.33;88.14;99980.69;10309868;28;20204;-69
2024/01/17 14:53:40;;;;;;;4.47;2.03;;;;;;;-10.36;87.33;99979.19;10317851;28;20046;-69
2024/01/17 14:58:42;;;;;;;2.97;1.77;;;;;;;-10.42;87.96;99984.28;10311569;28;20046;-69
2024/01/17 15:03:46;;;;;;;2.40;1.23;;;;;;;-10.50;88.34;99981.63;10296922;28;20050;-68
2024/01/17 15:08:49;;;;;;;4.93;1.17;;;;;;;-10.61;88.29;99992.53;10316664;28;20046;-69
2024/01/17 15:13:53;;;;;;;4.85;0.90;;;;;;;-10.73;88.22;99984.91;10303786;28;20035;-70
2024/01/17 15:18:56;;;;;;;2.00;1.55;;;;;;;-10.82;87.75;99985.84;10311093;28;20594;-69
2024/01/17 15:23:59;;;;;;;3.25;1.88;;;;;;;-10.92;88.66;99990.44;10307814;28;20537;-68
2024/01/17 15:29:02;;;;;;;4.03;1.73;;;;;;;-11.04;88.40;100004.97;10300273;28;20039;-69
2024/01/17 15:34:04;;;;;;;2.38;1.30;;;;;;;-11.02;88.30;100010.94;10282600;28;20031;-69
2024/01/17 15:39:07;;;;;;;2.92;0.98;;;;;;;-11.13;89.12;100001.41;10271843;28;20043;-68
2024/01/17 15:44:10;;;;;;;1.35;1.17;;;;;;;-11.23;89.09;100002.53;10296915;28;20059;-69
2024/01/17 15:49:13;;;;;;;4.15;1.83;;;;;;;-11.27;88.26;100018.75;10298673;28;20039;-69
2024/01/17 15:54:16;;;;;;;2.05;1.25;;;;;;;-11.24;89.32;100017.59;10300918;28;20038;-68
2024/01/17 15:59:19;;;;;;;2.42;1.25;;;;;;;-11.17;88.39;100009.84;10282286;28;20042;-71
2024/01/17 16:04:25;;;;;;;3.78;1.88;;;;;;;-11.33;89.19;100008.75;10312553;28;20039;-69
2024/01/17 16:09:28;;;;;;;4.38;1.77;;;;;;;-11.40;89.05;100013.03;10293105;28;20047;-69
2024/01/17 16:14:33;;;;;;;1.98;1.30;;;;;;;-11.49;88.82;100010.47;10298729;28;20084;-71
2024/01/17 16:19:35;;;;;;;1.95;1.75;;;;;;;-11.47;89.14;100011.13;10295432;28;20046;-71
2024/01/17 16:24:41;;;;;;;2.13;1.40;;;;;;;-11.49;89.23;100015.75;10277382;28;20061;-69
2024/01/17 16:29:43;;;;;;;2.00;1.52;;;;;;;-11.49;89.60;100021.88;10291304;28;20036;-69
2024/01/17 16:34:47;;;;;;;5.93;3.58;;;;;;;-11.52;89.35;100018.72;10287553;28;20783;-69
2024/01/17 16:39:51;;;;;;;3.47;2.22;;;;;;;-11.57;89.58;100017.38;10292796;28;20050;-69
2024/01/17 16:44:54;;;;;;;3.35;1.88;;;;;;;-11.48;89.35;100014.78;10307538;28;20047;-68
2024/01/17 16:49:57;;;;;;;5.03;2.22;;;;;;;-11.49;89.37;100027.19;10283505;28;20042;-68
2024/01/17 16:55:00;;;;;;;1.80;1.35;;;;;;;-11.54;89.75;100024.16;10290515;28;20110;-69
2024/01/17 17:00:06;;;;;;;1.45;1.05;;;;;;;-11.60;89.04;100022.16;10290289;28;20035;-68
2024/01/17 17:05:08;;;;;;;1.55;0.95;;;;;;;-11.52;88.89;100026.66;10307485;28;20031;-66
2024/01/17 17:10:11;;;;;;;5.55;1.50;;;;;;;-11.58;88.87;100025.47;10290953;28;20035;-69
2024/01/17 17:15:15;;;;;;;1.27;1.17;;;;;;;-11.68;89.23;100020.25;10276091;28;20043;-68
2024/01/17 17:20:23;;;;;;;0.90;0.90;;;;;;;-11.70;89.19;100029.34;10295425;28;20042;-68
2024/01/17 17:25:26;;;;;;;1.95;1.52;;;;;;;-11.73;88.75;100035.78;10295045;28;20046;-67
2024/01/17 17:30:28;;;;;;;3.72;1.48;;;;;;;-11.75;88.80;100028.97;10302972;28;20113;-67
2024/01/17 17:35:31;;;;;;;1.88;0.70;;;;;;;-11.81;89.06;100027.78;10308079;28;20046;-68
2024/01/17 17:40:34;;;;;;;2.10;0.93;;;;;;;-11.75;89.57;100031.63;10301500;28;20548;-68
2024/01/17 17:45:37;;;;;;;1.67;1.55;;;;;;;-11.81;88.64;100042.81;10310397;28;20065;-68
2024/01/17 17:50:39;;;;;;;1.77;1.52;;;;;;;-11.85;89.11;100041.47;10309915;28;20042;-67
2024/01/17 17:55:42;;;;;;;2.63;1.33;;;;;;;-11.87;88.55;100041.63;10292874;28;20039;-68
2024/01/17 18:00:46;;;;;;;1.20;1.20;;;;;;;-11.81;88.70;100019.84;10308418;28;20054;-68
2024/01/17 18:05:48;;;;;;;1.10;0.57;;;;;;;-11.72;89.39;100026.84;10300420;28;20047;-67
2024/01/17 18:10:52;;;;;;;2.65;1.27;;;;;;;-11.73;88.66;100037.59;10301494;28;20053;-68
2024/01/17 18:15:54;;;;;;;2.75;1.85;;;;;;;-11.79;89.37;100032.94;10301657;28;20036;-67
2024/01/17 18:20:57;;;;;;;4.35;1.55;;;;;;;-11.67;89.06;100029.03;10306429;28;20035;-68
2024/01/17 18:26:00;;;;;;;2.78;1.55;;;;;;;-11.63;89.22;100035.66;10293476;28;20042;-68
2024/01/17 18:31:02;;;;;;;2.50;2.28;;;;;;;-11.64;89.33;100036.66;10299823;28;20047;-67
2024/01/17 18:36:06;;;;;;;3.15;2.67;;;;;;;-11.59;89.15;100039.69;10303838;28;20057;-67
2024/01/17 18:41:10;;;;;;;3.17;2.67;;;;;;;-11.58;88.98;100041.34;10277785;28;20104;-65
2024/01/17 18:46:13;;;;;;;3.30;2.78;;;;;;;-11.58;89.45;100034.25;10296828;28;20045;-66
2024/01/17 18:51:16;;;;;;;5.82;4.13;;;;;;;-11.56;89.19;100044.66;10296712;28;20055;-68
2024/01/17 19:02:00;;;;;;;5.15;2.53;;;;;;;-11.58;88.23;100044.00;11005386;23;20062;-88
2024/01/17 19:07:04;;;;;;;4.20;3.20;;;;;;;-11.73;87.70;100033.13;10270555;29;20047;-90
2024/01/17 19:12:09;;;;;;;5.65;3.15;;;;;;;-11.80;87.77;100033.91;10258223;29;20464;-90
2024/01/17 19:17:12;;;;;;;9.05;3.78;;;;;;;-11.85;88.61;100033.53;10290199;23;20433;-62
2024/01/17 19:22:16;;;;;;;5.18;2.45;;;;;;;-11.90;88.09;100040.13;10279110;28;20039;-62
2024/01/17 19:27:20;;;;;;;8.98;3.22;;;;;;;-11.89;88.35;100043.59;10269143;28;20039;-62
2024/01/17 19:32:23;;;;;;;6.18;3.38;;;;;;;-11.91;88.06;100035.00;10275111;28;20414;-61
2024/01/17 19:37:26;;;;;;;7.95;2.50;;;;;;;-11.97;88.14;100033.78;10274487;28;20043;-62
2024/01/17 19:42:31;;;;;;;6.05;2.63;;;;;;;-11.99;87.99;100029.59;10271703;28;20410;-64
2024/01/17 19:47:35;;;;;;;6.95;3.67;;;;;;;-11.99;87.67;100033.09;10274315;28;20043;-62
2024/01/17 19:52:39;;;;;;;9.35;3.40;;;;;;;-11.95;86.70;100039.75;10269368;28;20055;-61
2024/01/17 19:57:42;;;;;;;5.07;3.38;;;;;;;-11.95;86.13;100031.81;10340791;23;20499;-60
2024/01/17 20:03:10;;;;;;;9.52;3.78;;;;;;;-12.03;85.69;100034.38;10360406;23;20046;31
2024/01/17 20:08:13;;;;;;;8.40;3.92;;;;;;;-12.08;85.81;100031.34;10284965;28;20051;-69
2024/01/17 20:13:15;;;;;;;4.00;2.88;;;;;;;-12.19;85.30;100035.03;10262917;28;20460;-72
2024/01/17 20:18:18;;;;;;;9.85;4.07;;;;;;;-12.35;84.94;100032.22;10284775;28;20055;-69
2024/01/17 20:23:21;;;;;;;3.67;2.03;;;;;;;-12.38;84.67;100026.41;10282290;28;20066;-68
2024/01/17 20:28:25;;;;;;;4.18;3.58;;;;;;;-12.34;84.51;100027.78;10261233;28;20506;-68
2024/01/17 20:33:28;;;;;;;5.30;2.58;;;;;;;-12.35;83.49;100026.13;10278805;28;20058;-66
2024/01/17 20:38:30;;;;;;;4.53;2.90;;;;;;;-12.46;82.84;100024.53;10283030;28;20434;-68
2024/01/17 20:43:32;;;;;;;3.17;2.20;;;;;;;-12.45;82.39;100017.44;10273957;28;20062;-68
2024/01/17 20:48:35;;;;;;;4.97;2.17;;;;;;;-12.45;81.67;100014.78;10292088;28;20522;-69
2024/01/17 20:53:37;;;;;;;4.47;2.75;;;;;;;-12.45;81.59;100002.41;10297266;28;20533;-68
2024/01/17 20:58:41;;;;;;;11.02;4.78;;;;;;;-12.49;81.38;99986.03;10281969;28;20039;-66
2024/01/17 21:03:43;;;;;;;9.07;4.47;;;;;;;-12.46;80.60;99974.31;10292713;28;20057;-67
2024/01/17 21:08:46;;;;;;;11.55;4.97;;;;;;;-12.53;80.19;99968.78;10325022;28;20035;-66
2024/01/17 21:13:49;;;;;;;11.15;4.30;;;;;;;-12.54;79.90;99958.38;10318874;28;20534;-65
2024/01/17 21:18:52;;;;;;;9.73;4.53;;;;;;;-12.50;79.01;99952.63;10306513;28;20034;-67
2024/01/17 21:23:54;;;;;;;5.95;3.58;;;;;;;-12.55;78.57;99948.78;10306285;28;20476;-66
2024/01/17 21:28:57;;;;;;;7.50;4.05;;;;;;;-12.62;78.76;99945.91;10325693;28;20054;-64
2024/01/17 21:33:59;;;;;;;7.38;4.00;;;;;;;-12.70;78.70;99934.41;10323226;28;20031;-64
2024/01/17 21:39:03;;;;;;;7.78;3.53;;;;;;;-12.79;78.77;99915.84;10337145;28;20039;-67
2024/01/17 21:44:07;;;;;;;5.45;3.15;;;;;;;-12.75;77.89;99907.63;10306549;28;20066;-65
2024/01/17 21:49:11;;;;;;;5.85;4.00;;;;;;;-12.82;78.29;99902.97;10303892;28;20085;-65
2024/01/17 21:54:14;;;;;;;8.02;3.78;;;;;;;-12.94;78.37;99898.03;10325940;28;20047;-66
2024/01/17 21:59:17;;;;;;;7.63;3.50;;;;;;;-12.96;78.73;99902.63;10310041;28;20039;-66
2024/01/17 22:04:19;;;;;;;7.53;3.85;;;;;;;-12.98;78.41;99909.88;10344286;28;20042;-65
2024/01/17 22:09:22;;;;;;;5.85;3.20;;;;;;;-13.12;78.79;99904.09;10336654;28;20041;-67
2024/01/17 22:14:24;;;;;;;5.82;3.63;;;;;;;-13.24;78.71;99910.59;10325018;28;20038;-66
2024/01/17 22:19:27;;;;;;;9.43;3.70;;;;;;;-13.23;79.06;99906.97;10308508;28;20058;-65
2024/01/17 22:24:31;;;;;;;8.13;3.70;;;;;;;-13.28;79.71;99903.94;10319494;28;20073;-65
2024/01/17 22:29:37;;;;;;;5.35;3.28;;;;;;;-13.15;79.33;99901.75;10317253;28;20417;-68
2024/01/17 22:34:42;;;;;;;4.75;3.33;;;;;;;-13.11;79.48;99894.38;10304885;28;20053;-66
2024/01/17 22:39:44;;;;;;;6.32;2.97;;;;;;;-12.95;78.43;99904.28;10322140;28;20481;-64
2024/01/17 22:44:46;;;;;;;4.95;3.08;;;;;;;-12.68;77.65;99884.91;10315294;28;20042;-64
2024/01/17 22:49:49;;;;;;;6.00;2.40;;;;;;;-12.38;76.84;99887.16;10326853;28;20042;-65
2024/01/17 22:54:52;;;;;;;2.75;2.08;;;;;;;-12.21;75.25;99901.34;10318704;28;20133;-63
2024/01/17 22:59:55;;;;;;;3.10;2.20;;;;;;;-12.06;74.27;99868.06;10317125;28;20050;-65
2024/01/17 23:04:58;;;;;;;4.10;2.20;;;;;;;-11.97;73.07;99883.03;10315378;28;20069;-64
2024/01/17 23:10:01;;;;;;;5.15;2.53;;;;;;;-11.96;72.62;99873.28;10298451;28;20042;-64
2024/01/17 23:15:04;;;;;;;6.18;2.47;;;;;;;-11.91;72.46;99871.81;10316432;28;20049;-64